Aviation Digital Data Service (ADDS)

Output produced by METARs form (1128 UTC 25 June 2019)
found at http://www.aviationweather.gov/metar/data/
 
METAR text: VVCT 251100Z 20007KT 9999 SCT015 SCT050 27/26 Q1009 NOSIG
Conditions at: VVCT (CAN THO , VN) observed 1100 UTC 25 June 2019
Temperature: 27.0°C (81°F)
Dewpoint: 26.0°C (79°F) [RH = 94%]
Pressure (altimeter): 29.79 inches Hg (1009.0 mb)
Winds: from the SSW (200 degrees) at 8 MPH (7 knots; 3.6 m/s)
Visibility: 6 or more miles (10+ km)
Ceiling: at least 12,000 feet AGL
Clouds: scattered clouds at 1500 feet AGL
scattered clouds at 5000 feet AGL
Weather: no significant weather observed at this time

METAR text: VVCT 251030Z 21005KT 9999 SCT015 SCT050 27/27 Q1009 NOSIG
Conditions at: VVCT (CAN THO , VN) observed 1030 UTC 25 June 2019
Temperature: 27.0°C (81°F)
Dewpoint: 27.0°C (81°F) [RH = 100%]
Pressure (altimeter): 29.79 inches Hg (1009.0 mb)
Winds: from the SSW (210 degrees) at 6 MPH (5 knots; 2.6 m/s)
Visibility: 6 or more miles (10+ km)
Ceiling: at least 12,000 feet AGL
Clouds: scattered clouds at 1500 feet AGL
scattered clouds at 5000 feet AGL
Weather: no significant weather observed at this time

METAR text: VVCT 251000Z 21005KT 9999 SCT015 SCT050 27/26 Q1008 NOSIG
Conditions at: VVCT (CAN THO , VN) observed 1000 UTC 25 June 2019
Temperature: 27.0°C (81°F)
Dewpoint: 26.0°C (79°F) [RH = 94%]
Pressure (altimeter): 29.76 inches Hg (1008.0 mb)
Winds: from the SSW (210 degrees) at 6 MPH (5 knots; 2.6 m/s)
Visibility: 6 or more miles (10+ km)
Ceiling: at least 12,000 feet AGL
Clouds: scattered clouds at 1500 feet AGL
scattered clouds at 5000 feet AGL
Weather: no significant weather observed at this time

METAR text: VVCT 250930Z 18007KT 9999 SCT015 SCT050 27/26 Q1008 NOSIG
Conditions at: VVCT (CAN THO , VN) observed 0930 UTC 25 June 2019
Temperature: 27.0°C (81°F)
Dewpoint: 26.0°C (79°F) [RH = 94%]
Pressure (altimeter): 29.76 inches Hg (1008.0 mb)
Winds: from the S (180 degrees) at 8 MPH (7 knots; 3.6 m/s)
Visibility: 6 or more miles (10+ km)
Ceiling: at least 12,000 feet AGL
Clouds: scattered clouds at 1500 feet AGL
scattered clouds at 5000 feet AGL
Weather: no significant weather observed at this time

METAR text: VVCT 250900Z 18008KT 9999 SCT015 SCT050 27/25 Q1008 NOSIG
Conditions at: VVCT (CAN THO , VN) observed 0900 UTC 25 June 2019
Temperature: 27.0°C (81°F)
Dewpoint: 25.0°C (77°F) [RH = 89%]
Pressure (altimeter): 29.76 inches Hg (1008.0 mb)
Winds: from the S (180 degrees) at 9 MPH (8 knots; 4.1 m/s)
Visibility: 6 or more miles (10+ km)
Ceiling: at least 12,000 feet AGL
Clouds: scattered clouds at 1500 feet AGL
scattered clouds at 5000 feet AGL
Weather: no significant weather observed at this time

METAR text: VVCT 250830Z 19004KT 170V240 9999 SCT015 SCT050 28/26 Q1008 NOSIG
Conditions at: VVCT (CAN THO , VN) observed 0830 UTC 25 June 2019
Temperature: 28.0°C (82°F)
Dewpoint: 26.0°C (79°F) [RH = 89%]
Pressure (altimeter): 29.76 inches Hg (1008.0 mb)
Winds: from the S (190 degrees) at 5 MPH (4 knots; 2.1 m/s)
Visibility: 6 or more miles (10+ km)
Ceiling: at least 12,000 feet AGL
Clouds: scattered clouds at 1500 feet AGL
scattered clouds at 5000 feet AGL
Weather: no significant weather observed at this time

METAR text: VVCT 250800Z 18005KT 150V210 9999 BKN015 FEW017CB 27/26 Q1008 NOSIG CB/SE/OVER RWY
Conditions at: VVCT (CAN THO , VN) observed 0800 UTC 25 June 2019
Temperature: 27.0°C (81°F)
Dewpoint: 26.0°C (79°F) [RH = 94%]
Pressure (altimeter): 29.76 inches Hg (1008.0 mb)
Winds: from the S (180 degrees) at 6 MPH (5 knots; 2.6 m/s)
Visibility: 6 or more miles (10+ km)
Ceiling: 1500 feet AGL
Clouds: broken clouds at 1500 feet AGL
few clouds at 1700 feet AGL
Weather: no significant weather observed at this time

METAR text: VVCT 250730Z 26005KT 230V360 9999 BKN015 FEW017CB 27/26 Q1008 NOSIG CB/SW/OVER RWY
Conditions at: VVCT (CAN THO , VN) observed 0730 UTC 25 June 2019
Temperature: 27.0°C (81°F)
Dewpoint: 26.0°C (79°F) [RH = 94%]
Pressure (altimeter): 29.76 inches Hg (1008.0 mb)
Winds: from the W (260 degrees) at 6 MPH (5 knots; 2.6 m/s)
Visibility: 6 or more miles (10+ km)
Ceiling: 1500 feet AGL
Clouds: broken clouds at 1500 feet AGL
few clouds at 1700 feet AGL
Weather: no significant weather observed at this time

METAR text: VVCT 250700Z 23008KT 160V270 9999 BKN015 FEW017CB 31/26 Q1008 NOSIG CB/SW/OVER RWY
Conditions at: VVCT (CAN THO , VN) observed 0700 UTC 25 June 2019
Temperature: 31.0°C (88°F)
Dewpoint: 26.0°C (79°F) [RH = 75%]
Pressure (altimeter): 29.76 inches Hg (1008.0 mb)
Winds: from the SW (230 degrees) at 9 MPH (8 knots; 4.1 m/s)
Visibility: 6 or more miles (10+ km)
Ceiling: 1500 feet AGL
Clouds: broken clouds at 1500 feet AGL
few clouds at 1700 feet AGL
Weather: no significant weather observed at this time

METAR text: VVCT 250630Z 20004KT 150V250 9999 SCT015 FEW017TCU 34/27 Q1007 NOSIG TCU/SW/OVER RWY
Conditions at: VVCT (CAN THO , VN) observed 0630 UTC 25 June 2019
Temperature: 34.0°C (93°F)
Dewpoint: 27.0°C (81°F) [RH = 67%]
Pressure (altimeter): 29.73 inches Hg (1007.0 mb)
Winds: from the SSW (200 degrees) at 5 MPH (4 knots; 2.1 m/s)
Visibility: 6 or more miles (10+ km)
Ceiling: at least 12,000 feet AGL
Clouds: scattered clouds at 1500 feet AGL
few clouds at 1700 feet AGL
Weather: no significant weather observed at this time

METAR text: VVCT 250600Z 24006KT 180V290 9999 BKN015 34/26 Q1008 NOSIG
Conditions at: VVCT (CAN THO , VN) observed 0600 UTC 25 June 2019
Temperature: 34.0°C (93°F)
Dewpoint: 26.0°C (79°F) [RH = 63%]
Pressure (altimeter): 29.76 inches Hg (1008.0 mb)
Winds: from the WSW (240 degrees) at 7 MPH (6 knots; 3.1 m/s)
Visibility: 6 or more miles (10+ km)
Ceiling: 1500 feet AGL
Clouds: broken clouds at 1500 feet AGL
Weather: no significant weather observed at this time

METAR text: VVCT 250530Z 19005KT 140V280 9999 BKN015 33/26 Q1008 NOSIG
Conditions at: VVCT (CAN THO , VN) observed 0530 UTC 25 June 2019
Temperature: 33.0°C (91°F)
Dewpoint: 26.0°C (79°F) [RH = 67%]
Pressure (altimeter): 29.76 inches Hg (1008.0 mb)
Winds: from the S (190 degrees) at 6 MPH (5 knots; 2.6 m/s)
Visibility: 6 or more miles (10+ km)
Ceiling: 1500 feet AGL
Clouds: broken clouds at 1500 feet AGL
Weather: no significant weather observed at this time

METAR text: VVCT 250500Z 21006KT 170V260 9999 BKN015 34/27 Q1009 NOSIG
Conditions at: VVCT (CAN THO , VN) observed 0500 UTC 25 June 2019
Temperature: 34.0°C (93°F)
Dewpoint: 27.0°C (81°F) [RH = 67%]
Pressure (altimeter): 29.79 inches Hg (1009.0 mb)
Winds: from the SSW (210 degrees) at 7 MPH (6 knots; 3.1 m/s)
Visibility: 6 or more miles (10+ km)
Ceiling: 1500 feet AGL
Clouds: broken clouds at 1500 feet AGL
Weather: no significant weather observed at this time

METAR text: VVCT 250430Z 18005KT 150V220 9999 BKN015 34/26 Q1009 NOSIG
Conditions at: VVCT (CAN THO , VN) observed 0430 UTC 25 June 2019
Temperature: 34.0°C (93°F)
Dewpoint: 26.0°C (79°F) [RH = 63%]
Pressure (altimeter): 29.79 inches Hg (1009.0 mb)
Winds: from the S (180 degrees) at 6 MPH (5 knots; 2.6 m/s)
Visibility: 6 or more miles (10+ km)
Ceiling: 1500 feet AGL
Clouds: broken clouds at 1500 feet AGL
Weather: no significant weather observed at this time

METAR text: VVCT 250400Z 18005KT 130V230 9999 BKN015 32/26 Q1010 NOSIG
Conditions at: VVCT (CAN THO , VN) observed 0400 UTC 25 June 2019
Temperature: 32.0°C (90°F)
Dewpoint: 26.0°C (79°F) [RH = 71%]
Pressure (altimeter): 29.82 inches Hg (1010.0 mb)
Winds: from the S (180 degrees) at 6 MPH (5 knots; 2.6 m/s)
Visibility: 6 or more miles (10+ km)
Ceiling: 1500 feet AGL
Clouds: broken clouds at 1500 feet AGL
Weather: no significant weather observed at this time

METAR text: VVCT 250330Z 20007KT 150V240 9999 BKN015 32/27 Q1010 NOSIG
Conditions at: VVCT (CAN THO , VN) observed 0330 UTC 25 June 2019
Temperature: 32.0°C (90°F)
Dewpoint: 27.0°C (81°F) [RH = 75%]
Pressure (altimeter): 29.82 inches Hg (1010.0 mb)
Winds: from the SSW (200 degrees) at 8 MPH (7 knots; 3.6 m/s)
Visibility: 6 or more miles (10+ km)
Ceiling: 1500 feet AGL
Clouds: broken clouds at 1500 feet AGL
Weather: no significant weather observed at this time

METAR text: VVCT 250300Z 19007KT 140V230 9999 BKN015 32/27 Q1010 NOSIG
Conditions at: VVCT (CAN THO , VN) observed 0300 UTC 25 June 2019
Temperature: 32.0°C (90°F)
Dewpoint: 27.0°C (81°F) [RH = 75%]
Pressure (altimeter): 29.82 inches Hg (1010.0 mb)
Winds: from the S (190 degrees) at 8 MPH (7 knots; 3.6 m/s)
Visibility: 6 or more miles (10+ km)
Ceiling: 1500 feet AGL
Clouds: broken clouds at 1500 feet AGL
Weather: no significant weather observed at this time

METAR text: VVCT 250230Z 21008KT 170V230 9999 SCT013 SCT050 31/27 Q1011 NOSIG
Conditions at: VVCT (CAN THO , VN) observed 0230 UTC 25 June 2019
Temperature: 31.0°C (88°F)
Dewpoint: 27.0°C (81°F) [RH = 79%]
Pressure (altimeter): 29.85 inches Hg (1011.0 mb)
Winds: from the SSW (210 degrees) at 9 MPH (8 knots; 4.1 m/s)
Visibility: 6 or more miles (10+ km)
Ceiling: at least 12,000 feet AGL
Clouds: scattered clouds at 1300 feet AGL
scattered clouds at 5000 feet AGL
Weather: no significant weather observed at this time

METAR text: VVCT 250200Z 20008KT 9999 SCT013 SCT050 30/28 Q1011 NOSIG
Conditions at: VVCT (CAN THO , VN) observed 0200 UTC 25 June 2019
Temperature: 30.0°C (86°F)
Dewpoint: 28.0°C (82°F) [RH = 89%]
Pressure (altimeter): 29.85 inches Hg (1011.0 mb)
Winds: from the SSW (200 degrees) at 9 MPH (8 knots; 4.1 m/s)
Visibility: 6 or more miles (10+ km)
Ceiling: at least 12,000 feet AGL
Clouds: scattered clouds at 1300 feet AGL
scattered clouds at 5000 feet AGL
Weather: no significant weather observed at this time

METAR text: VVCT 250130Z 20007KT 9999 FEW013 SCT050 31/27 Q1010 NOSIG
Conditions at: VVCT (CAN THO , VN) observed 0130 UTC 25 June 2019
Temperature: 31.0°C (88°F)
Dewpoint: 27.0°C (81°F) [RH = 79%]
Pressure (altimeter): 29.82 inches Hg (1010.0 mb)
Winds: from the SSW (200 degrees) at 8 MPH (7 knots; 3.6 m/s)
Visibility: 6 or more miles (10+ km)
Ceiling: at least 12,000 feet AGL
Clouds: few clouds at 1300 feet AGL
scattered clouds at 5000 feet AGL
Weather: no significant weather observed at this time

METAR text: VVCT 250100Z 20004KT 9999 FEW013 SCT050 30/28 Q1010 NOSIG
Conditions at: VVCT (CAN THO , VN) observed 0100 UTC 25 June 2019
Temperature: 30.0°C (86°F)
Dewpoint: 28.0°C (82°F) [RH = 89%]
Pressure (altimeter): 29.82 inches Hg (1010.0 mb)
Winds: from the SSW (200 degrees) at 5 MPH (4 knots; 2.1 m/s)
Visibility: 6 or more miles (10+ km)
Ceiling: at least 12,000 feet AGL
Clouds: few clouds at 1300 feet AGL
scattered clouds at 5000 feet AGL
Weather: no significant weather observed at this time

METAR text: VVCT 250030Z VRB02KT 9999 FEW013 SCT050 29/28 Q1010 NOSIG
Conditions at: VVCT (CAN THO , VN) observed 0030 UTC 25 June 2019
Temperature: 29.0°C (84°F)
Dewpoint: 28.0°C (82°F) [RH = 94%]
Pressure (altimeter): 29.82 inches Hg (1010.0 mb)
Winds: variable direction winds at 2 MPH (2 knots; 1.0 m/s)
Visibility: 6 or more miles (10+ km)
Ceiling: at least 12,000 feet AGL
Clouds: few clouds at 1300 feet AGL
scattered clouds at 5000 feet AGL
Weather: no significant weather observed at this time

METAR text: VVCT 250000Z VRB01KT 9999 FEW013 27/27 Q1010 NOSIG
Conditions at: VVCT (CAN THO , VN) observed 0000 UTC 25 June 2019
Temperature: 27.0°C (81°F)
Dewpoint: 27.0°C (81°F) [RH = 100%]
Pressure (altimeter): 29.82 inches Hg (1010.0 mb)
Winds: variable direction winds at 1 MPH (1 knots; 0.5 m/s)
Visibility: 6 or more miles (10+ km)
Ceiling: at least 12,000 feet AGL
Clouds: few clouds at 1300 feet AGL
Weather: no significant weather observed at this time

METAR text: VVCT 242330Z 00000KT 8000 SCT013 SCT050 27/27 Q1009 NOSIG
Conditions at: VVCT (CAN THO , VN) observed 2330 UTC 24 June 2019
Temperature: 27.0°C (81°F)
Dewpoint: 27.0°C (81°F) [RH = 100%]
Pressure (altimeter): 29.79 inches Hg (1009.0 mb)
Winds: calm
Visibility: 5 miles ( 8 km)
Ceiling: at least 12,000 feet AGL
Clouds: scattered clouds at 1300 feet AGL
scattered clouds at 5000 feet AGL
Weather: no significant weather observed at this time

METAR text: VVCT 242300Z 00000KT 8000 FEW013 BKN050 26/26 Q1009 NOSIG
Conditions at: VVCT (CAN THO , VN) observed 2300 UTC 24 June 2019
Temperature: 26.0°C (79°F)
Dewpoint: 26.0°C (79°F) [RH = 100%]
Pressure (altimeter): 29.79 inches Hg (1009.0 mb)
Winds: calm
Visibility: 5 miles ( 8 km)
Ceiling: 5000 feet AGL
Clouds: few clouds at 1300 feet AGL
broken clouds at 5000 feet AGL
Weather: no significant weather observed at this time

METAR text: VVCT 242230Z 00000KT 8000 FEW013 BKN050 26/26 Q1008 NOSIG
Conditions at: VVCT (CAN THO , VN) observed 2230 UTC 24 June 2019
Temperature: 26.0°C (79°F)
Dewpoint: 26.0°C (79°F) [RH = 100%]
Pressure (altimeter): 29.76 inches Hg (1008.0 mb)
Winds: calm
Visibility: 5 miles ( 8 km)
Ceiling: 5000 feet AGL
Clouds: few clouds at 1300 feet AGL
broken clouds at 5000 feet AGL
Weather: no significant weather observed at this time

METAR text: VVCT 242200Z 00000KT 8000 FEW013 BKN050 26/26 Q1008 NOSIG
Conditions at: VVCT (CAN THO , VN) observed 2200 UTC 24 June 2019
Temperature: 26.0°C (79°F)
Dewpoint: 26.0°C (79°F) [RH = 100%]
Pressure (altimeter): 29.76 inches Hg (1008.0 mb)
Winds: calm
Visibility: 5 miles ( 8 km)
Ceiling: 5000 feet AGL
Clouds: few clouds at 1300 feet AGL
broken clouds at 5000 feet AGL
Weather: no significant weather observed at this time

METAR text: VVCT 242130Z 00000KT 8000 FEW013 BKN050 26/26 Q1008 NOSIG
Conditions at: VVCT (CAN THO , VN) observed 2130 UTC 24 June 2019
Temperature: 26.0°C (79°F)
Dewpoint: 26.0°C (79°F) [RH = 100%]
Pressure (altimeter): 29.76 inches Hg (1008.0 mb)
Winds: calm
Visibility: 5 miles ( 8 km)
Ceiling: 5000 feet AGL
Clouds: few clouds at 1300 feet AGL
broken clouds at 5000 feet AGL
Weather: no significant weather observed at this time

METAR text: VVCT 242100Z 00000KT 8000 FEW013 BKN050 26/26 Q1008 NOSIG
Conditions at: VVCT (CAN THO , VN) observed 2100 UTC 24 June 2019
Temperature: 26.0°C (79°F)
Dewpoint: 26.0°C (79°F) [RH = 100%]
Pressure (altimeter): 29.76 inches Hg (1008.0 mb)
Winds: calm
Visibility: 5 miles ( 8 km)
Ceiling: 5000 feet AGL
Clouds: few clouds at 1300 feet AGL
broken clouds at 5000 feet AGL
Weather: no significant weather observed at this time

METAR text: VVCT 242030Z VRB01KT 8000 FEW013 BKN050 26/26 Q1008 NOSIG
Conditions at: VVCT (CAN THO , VN) observed 2030 UTC 24 June 2019
Temperature: 26.0°C (79°F)
Dewpoint: 26.0°C (79°F) [RH = 100%]
Pressure (altimeter): 29.76 inches Hg (1008.0 mb)
Winds: variable direction winds at 1 MPH (1 knots; 0.5 m/s)
Visibility: 5 miles ( 8 km)
Ceiling: 5000 feet AGL
Clouds: few clouds at 1300 feet AGL
broken clouds at 5000 feet AGL
Weather: no significant weather observed at this time

METAR text: VVCT 242000Z 18001KT 8000 FEW013 BKN050 26/26 Q1008 NOSIG
Conditions at: VVCT (CAN THO , VN) observed 2000 UTC 24 June 2019
Temperature: 26.0°C (79°F)
Dewpoint: 26.0°C (79°F) [RH = 100%]
Pressure (altimeter): 29.76 inches Hg (1008.0 mb)
Winds: from the S (180 degrees) at 1 MPH (1 knots; 0.5 m/s)
Visibility: 5 miles ( 8 km)
Ceiling: 5000 feet AGL
Clouds: few clouds at 1300 feet AGL
broken clouds at 5000 feet AGL
Weather: no significant weather observed at this time

METAR text: VVCT 241930Z 00000KT 8000 FEW013 BKN050 26/26 Q1008 NOSIG
Conditions at: VVCT (CAN THO , VN) observed 1930 UTC 24 June 2019
Temperature: 26.0°C (79°F)
Dewpoint: 26.0°C (79°F) [RH = 100%]
Pressure (altimeter): 29.76 inches Hg (1008.0 mb)
Winds: calm
Visibility: 5 miles ( 8 km)
Ceiling: 5000 feet AGL
Clouds: few clouds at 1300 feet AGL
broken clouds at 5000 feet AGL
Weather: no significant weather observed at this time

METAR text: VVCT 241900Z 00000KT 8000 FEW013 BKN050 26/26 Q1008 NOSIG
Conditions at: VVCT (CAN THO , VN) observed 1900 UTC 24 June 2019
Temperature: 26.0°C (79°F)
Dewpoint: 26.0°C (79°F) [RH = 100%]
Pressure (altimeter): 29.76 inches Hg (1008.0 mb)
Winds: calm
Visibility: 5 miles ( 8 km)
Ceiling: 5000 feet AGL
Clouds: few clouds at 1300 feet AGL
broken clouds at 5000 feet AGL
Weather: no significant weather observed at this time

METAR text: VVCT 241830Z 00000KT 8000 FEW013 BKN050 27/27 Q1008 NOSIG
Conditions at: VVCT (CAN THO , VN) observed 1830 UTC 24 June 2019
Temperature: 27.0°C (81°F)
Dewpoint: 27.0°C (81°F) [RH = 100%]
Pressure (altimeter): 29.76 inches Hg (1008.0 mb)
Winds: calm
Visibility: 5 miles ( 8 km)
Ceiling: 5000 feet AGL
Clouds: few clouds at 1300 feet AGL
broken clouds at 5000 feet AGL
Weather: no significant weather observed at this time

METAR text: VVCT 241800Z VRB01KT 8000 FEW013 BKN050 27/27 Q1009 NOSIG
Conditions at: VVCT (CAN THO , VN) observed 1800 UTC 24 June 2019
Temperature: 27.0°C (81°F)
Dewpoint: 27.0°C (81°F) [RH = 100%]
Pressure (altimeter): 29.79 inches Hg (1009.0 mb)
Winds: variable direction winds at 1 MPH (1 knots; 0.5 m/s)
Visibility: 5 miles ( 8 km)
Ceiling: 5000 feet AGL
Clouds: few clouds at 1300 feet AGL
broken clouds at 5000 feet AGL
Weather: no significant weather observed at this time

METAR text: VVCT 241730Z VRB01KT 8000 FEW013 BKN050 27/27 Q1009 NOSIG
Conditions at: VVCT (CAN THO , VN) observed 1730 UTC 24 June 2019
Temperature: 27.0°C (81°F)
Dewpoint: 27.0°C (81°F) [RH = 100%]
Pressure (altimeter): 29.79 inches Hg (1009.0 mb)
Winds: variable direction winds at 1 MPH (1 knots; 0.5 m/s)
Visibility: 5 miles ( 8 km)
Ceiling: 5000 feet AGL
Clouds: few clouds at 1300 feet AGL
broken clouds at 5000 feet AGL
Weather: no significant weather observed at this time

METAR text: VVCT 241700Z 20002KT 8000 FEW013 BKN050 27/27 Q1009 NOSIG
Conditions at: VVCT (CAN THO , VN) observed 1700 UTC 24 June 2019
Temperature: 27.0°C (81°F)
Dewpoint: 27.0°C (81°F) [RH = 100%]
Pressure (altimeter): 29.79 inches Hg (1009.0 mb)
Winds: from the SSW (200 degrees) at 2 MPH (2 knots; 1.0 m/s)
Visibility: 5 miles ( 8 km)
Ceiling: 5000 feet AGL
Clouds: few clouds at 1300 feet AGL
broken clouds at 5000 feet AGL
Weather: no significant weather observed at this time

METAR text: VVCT 241630Z 20003KT 8000 FEW013 BKN050 28/27 Q1009 NOSIG
Conditions at: VVCT (CAN THO , VN) observed 1630 UTC 24 June 2019
Temperature: 28.0°C (82°F)
Dewpoint: 27.0°C (81°F) [RH = 94%]
Pressure (altimeter): 29.79 inches Hg (1009.0 mb)
Winds: from the SSW (200 degrees) at 3 MPH (3 knots; 1.5 m/s)
Visibility: 5 miles ( 8 km)
Ceiling: 5000 feet AGL
Clouds: few clouds at 1300 feet AGL
broken clouds at 5000 feet AGL
Weather: no significant weather observed at this time

METAR text: VVCT 241600Z 19003KT 8000 FEW013 BKN050 28/27 Q1010 NOSIG
Conditions at: VVCT (CAN THO , VN) observed 1600 UTC 24 June 2019
Temperature: 28.0°C (82°F)
Dewpoint: 27.0°C (81°F) [RH = 94%]
Pressure (altimeter): 29.82 inches Hg (1010.0 mb)
Winds: from the S (190 degrees) at 3 MPH (3 knots; 1.5 m/s)
Visibility: 5 miles ( 8 km)
Ceiling: 5000 feet AGL
Clouds: few clouds at 1300 feet AGL
broken clouds at 5000 feet AGL
Weather: no significant weather observed at this time

METAR text: VVCT 241530Z 17003KT 8000 FEW013 BKN050 28/27 Q1010 NOSIG
Conditions at: VVCT (CAN THO , VN) observed 1530 UTC 24 June 2019
Temperature: 28.0°C (82°F)
Dewpoint: 27.0°C (81°F) [RH = 94%]
Pressure (altimeter): 29.82 inches Hg (1010.0 mb)
Winds: from the S (170 degrees) at 3 MPH (3 knots; 1.5 m/s)
Visibility: 5 miles ( 8 km)
Ceiling: 5000 feet AGL
Clouds: few clouds at 1300 feet AGL
broken clouds at 5000 feet AGL
Weather: no significant weather observed at this time

METAR text: VVCT 241500Z VRB01KT 8000 FEW013 BKN050 28/26 Q1010 NOSIG
Conditions at: VVCT (CAN THO , VN) observed 1500 UTC 24 June 2019
Temperature: 28.0°C (82°F)
Dewpoint: 26.0°C (79°F) [RH = 89%]
Pressure (altimeter): 29.82 inches Hg (1010.0 mb)
Winds: variable direction winds at 1 MPH (1 knots; 0.5 m/s)
Visibility: 5 miles ( 8 km)
Ceiling: 5000 feet AGL
Clouds: few clouds at 1300 feet AGL
broken clouds at 5000 feet AGL
Weather: no significant weather observed at this time

METAR text: VVCT 241430Z 18002KT 8000 FEW013 BKN050 27/26 Q1010 NOSIG
Conditions at: VVCT (CAN THO , VN) observed 1430 UTC 24 June 2019
Temperature: 27.0°C (81°F)
Dewpoint: 26.0°C (79°F) [RH = 94%]
Pressure (altimeter): 29.82 inches Hg (1010.0 mb)
Winds: from the S (180 degrees) at 2 MPH (2 knots; 1.0 m/s)
Visibility: 5 miles ( 8 km)
Ceiling: 5000 feet AGL
Clouds: few clouds at 1300 feet AGL
broken clouds at 5000 feet AGL
Weather: no significant weather observed at this time

METAR text: VVCT 241400Z VRB02KT 8000 FEW013 BKN050 27/26 Q1010 NOSIG
Conditions at: VVCT (CAN THO , VN) observed 1400 UTC 24 June 2019
Temperature: 27.0°C (81°F)
Dewpoint: 26.0°C (79°F) [RH = 94%]
Pressure (altimeter): 29.82 inches Hg (1010.0 mb)
Winds: variable direction winds at 2 MPH (2 knots; 1.0 m/s)
Visibility: 5 miles ( 8 km)
Ceiling: 5000 feet AGL
Clouds: few clouds at 1300 feet AGL
broken clouds at 5000 feet AGL
Weather: no significant weather observed at this time

METAR text: VVCT 241330Z 15002KT 8000 FEW013 BKN050 27/26 Q1009 NOSIG
Conditions at: VVCT (CAN THO , VN) observed 1330 UTC 24 June 2019
Temperature: 27.0°C (81°F)
Dewpoint: 26.0°C (79°F) [RH = 94%]
Pressure (altimeter): 29.79 inches Hg (1009.0 mb)
Winds: from the SSE (150 degrees) at 2 MPH (2 knots; 1.0 m/s)
Visibility: 5 miles ( 8 km)
Ceiling: 5000 feet AGL
Clouds: few clouds at 1300 feet AGL
broken clouds at 5000 feet AGL
Weather: no significant weather observed at this time

METAR text: VVCT 241300Z 16003KT 8000 FEW013 BKN050 27/26 Q1009 NOSIG
Conditions at: VVCT (CAN THO , VN) observed 1300 UTC 24 June 2019
Temperature: 27.0°C (81°F)
Dewpoint: 26.0°C (79°F) [RH = 94%]
Pressure (altimeter): 29.79 inches Hg (1009.0 mb)
Winds: from the SSE (160 degrees) at 3 MPH (3 knots; 1.5 m/s)
Visibility: 5 miles ( 8 km)
Ceiling: 5000 feet AGL
Clouds: few clouds at 1300 feet AGL
broken clouds at 5000 feet AGL
Weather: no significant weather observed at this time

METAR text: VVCT 241230Z VRB03KT 9999 FEW013 FEW015TCU BKN050 28/26 Q1008 NOSIG TCU/NW
Conditions at: VVCT (CAN THO , VN) observed 1230 UTC 24 June 2019
Temperature: 28.0°C (82°F)
Dewpoint: 26.0°C (79°F) [RH = 89%]
Pressure (altimeter): 29.76 inches Hg (1008.0 mb)
Winds: variable direction winds at 3 MPH (3 knots; 1.5 m/s)
Visibility: 6 or more miles (10+ km)
Ceiling: 5000 feet AGL
Clouds: few clouds at 1300 feet AGL
few clouds at 1500 feet AGL
broken clouds at 5000 feet AGL
Weather: no significant weather observed at this time

METAR text: VVCT 241200Z VRB01KT 9999 FEW013 FEW015TCU BKN050 28/26 Q1008 NOSIG TCU/NW
Conditions at: VVCT (CAN THO , VN) observed 1200 UTC 24 June 2019
Temperature: 28.0°C (82°F)
Dewpoint: 26.0°C (79°F) [RH = 89%]
Pressure (altimeter): 29.76 inches Hg (1008.0 mb)
Winds: variable direction winds at 1 MPH (1 knots; 0.5 m/s)
Visibility: 6 or more miles (10+ km)
Ceiling: 5000 feet AGL
Clouds: few clouds at 1300 feet AGL
few clouds at 1500 feet AGL
broken clouds at 5000 feet AGL
Weather: no significant weather observed at this time

METAR text: VVCT 241130Z 16001KT 9999 FEW013 FEW015TCU BKN050 28/28 Q1008 NOSIG TCU/NW
Conditions at: VVCT (CAN THO , VN) observed 1130 UTC 24 June 2019
Temperature: 28.0°C (82°F)
Dewpoint: 28.0°C (82°F) [RH = 100%]
Pressure (altimeter): 29.76 inches Hg (1008.0 mb)
Winds: from the SSE (160 degrees) at 1 MPH (1 knots; 0.5 m/s)
Visibility: 6 or more miles (10+ km)
Ceiling: 5000 feet AGL
Clouds: few clouds at 1300 feet AGL
few clouds at 1500 feet AGL
broken clouds at 5000 feet AGL
Weather: no significant weather observed at this time

METAR text: VVCT 241100Z 16001KT 9999 FEW013 FEW015TCU BKN050 28/26 Q1007 NOSIG TCU/NW
Conditions at: VVCT (CAN THO , VN) observed 1100 UTC 24 June 2019
Temperature: 28.0°C (82°F)
Dewpoint: 26.0°C (79°F) [RH = 89%]
Pressure (altimeter): 29.73 inches Hg (1007.0 mb)
Winds: from the SSE (160 degrees) at 1 MPH (1 knots; 0.5 m/s)
Visibility: 6 or more miles (10+ km)
Ceiling: 5000 feet AGL
Clouds: few clouds at 1300 feet AGL
few clouds at 1500 feet AGL
broken clouds at 5000 feet AGL
Weather: no significant weather observed at this time

METAR text: VVCT 241030Z VRB03KT 9999 FEW013 FEW015TCU BKN050 28/26 Q1007 NOSIG TCU/NW
Conditions at: VVCT (CAN THO , VN) observed 1030 UTC 24 June 2019
Temperature: 28.0°C (82°F)
Dewpoint: 26.0°C (79°F) [RH = 89%]
Pressure (altimeter): 29.73 inches Hg (1007.0 mb)
Winds: variable direction winds at 3 MPH (3 knots; 1.5 m/s)
Visibility: 6 or more miles (10+ km)
Ceiling: 5000 feet AGL
Clouds: few clouds at 1300 feet AGL
few clouds at 1500 feet AGL
broken clouds at 5000 feet AGL
Weather: no significant weather observed at this time

METAR text: VVCT 241000Z VRB02KT 9999 -RA SCT013 FEW015CB SCT050 28/28 Q1007 NOSIG CB/NE
Conditions at: VVCT (CAN THO , VN) observed 1000 UTC 24 June 2019
Temperature: 28.0°C (82°F)
Dewpoint: 28.0°C (82°F) [RH = 100%]
Pressure (altimeter): 29.73 inches Hg (1007.0 mb)
Winds: variable direction winds at 2 MPH (2 knots; 1.0 m/s)
Visibility: 6 or more miles (10+ km)
Ceiling: at least 12,000 feet AGL
Clouds: scattered clouds at 1300 feet AGL
few clouds at 1500 feet AGL
scattered clouds at 5000 feet AGL
Weather: -RA  (light rain)

METAR text: VVCT 240930Z VRB03KT 9999 SCT013 FEW015CB SCT050 28/26 Q1007 NOSIG CB/NE
Conditions at: VVCT (CAN THO , VN) observed 0930 UTC 24 June 2019
Temperature: 28.0°C (82°F)
Dewpoint: 26.0°C (79°F) [RH = 89%]
Pressure (altimeter): 29.73 inches Hg (1007.0 mb)
Winds: variable direction winds at 3 MPH (3 knots; 1.5 m/s)
Visibility: 6 or more miles (10+ km)
Ceiling: at least 12,000 feet AGL
Clouds: scattered clouds at 1300 feet AGL
few clouds at 1500 feet AGL
scattered clouds at 5000 feet AGL
Weather: no significant weather observed at this time

METAR text: VVCT 240900Z 13004KT 9999 SCT013 FEW015CB SCT050 29/27 Q1007 NOSIG CB/E/SW/OVER RWY
Conditions at: VVCT (CAN THO , VN) observed 0900 UTC 24 June 2019
Temperature: 29.0°C (84°F)
Dewpoint: 27.0°C (81°F) [RH = 89%]
Pressure (altimeter): 29.73 inches Hg (1007.0 mb)
Winds: from the SE (130 degrees) at 5 MPH (4 knots; 2.1 m/s)
Visibility: 6 or more miles (10+ km)
Ceiling: at least 12,000 feet AGL
Clouds: scattered clouds at 1300 feet AGL
few clouds at 1500 feet AGL
scattered clouds at 5000 feet AGL
Weather: no significant weather observed at this time

METAR text: VVCT 240830Z 18004KT 110V220 9999 SCT013 FEW015CB SCT050 30/27 Q1007 NOSIG CB/E/SW/OVER RWY
Conditions at: VVCT (CAN THO , VN) observed 0830 UTC 24 June 2019
Temperature: 30.0°C (86°F)
Dewpoint: 27.0°C (81°F) [RH = 84%]
Pressure (altimeter): 29.73 inches Hg (1007.0 mb)
Winds: from the S (180 degrees) at 5 MPH (4 knots; 2.1 m/s)
Visibility: 6 or more miles (10+ km)
Ceiling: at least 12,000 feet AGL
Clouds: scattered clouds at 1300 feet AGL
few clouds at 1500 feet AGL
scattered clouds at 5000 feet AGL
Weather: no significant weather observed at this time

METAR text: VVCT 240800Z 22007KT 180V240 8000 VCSH SCT013 FEW015CB SCT050 31/27 Q1007 NOSIG CB/E/SW/OVER RWY
Conditions at: VVCT (CAN THO , VN) observed 0800 UTC 24 June 2019
Temperature: 31.0°C (88°F)
Dewpoint: 27.0°C (81°F) [RH = 79%]
Pressure (altimeter): 29.73 inches Hg (1007.0 mb)
Winds: from the SW (220 degrees) at 8 MPH (7 knots; 3.6 m/s)
Visibility: 5 miles ( 8 km)
Ceiling: at least 12,000 feet AGL
Clouds: scattered clouds at 1300 feet AGL
few clouds at 1500 feet AGL
scattered clouds at 5000 feet AGL
Weather: VCSH  (showers in vicinity)

METAR text: VVCT 240730Z 22006KT 190V270 8000 VCSH SCT013 FEW015TCU SCT050 31/26 Q1007 NOSIG TCU/E/SW
Conditions at: VVCT (CAN THO , VN) observed 0730 UTC 24 June 2019
Temperature: 31.0°C (88°F)
Dewpoint: 26.0°C (79°F) [RH = 75%]
Pressure (altimeter): 29.73 inches Hg (1007.0 mb)
Winds: from the SW (220 degrees) at 7 MPH (6 knots; 3.1 m/s)
Visibility: 5 miles ( 8 km)
Ceiling: at least 12,000 feet AGL
Clouds: scattered clouds at 1300 feet AGL
few clouds at 1500 feet AGL
scattered clouds at 5000 feet AGL
Weather: VCSH  (showers in vicinity)

METAR text: VVCT 240700Z 21006KT 9999 SCT013 FEW015TCU SCT050 31/27 Q1007 NOSIG TCU/E/SW
Conditions at: VVCT (CAN THO , VN) observed 0700 UTC 24 June 2019
Temperature: 31.0°C (88°F)
Dewpoint: 27.0°C (81°F) [RH = 79%]
Pressure (altimeter): 29.73 inches Hg (1007.0 mb)
Winds: from the SSW (210 degrees) at 7 MPH (6 knots; 3.1 m/s)
Visibility: 6 or more miles (10+ km)
Ceiling: at least 12,000 feet AGL
Clouds: scattered clouds at 1300 feet AGL
few clouds at 1500 feet AGL
scattered clouds at 5000 feet AGL
Weather: no significant weather observed at this time

METAR text: VVCT 240630Z 19006KT 150V230 9999 SCT013 FEW015TCU SCT050 32/27 Q1007 NOSIG TCU/N
Conditions at: VVCT (CAN THO , VN) observed 0630 UTC 24 June 2019
Temperature: 32.0°C (90°F)
Dewpoint: 27.0°C (81°F) [RH = 75%]
Pressure (altimeter): 29.73 inches Hg (1007.0 mb)
Winds: from the S (190 degrees) at 7 MPH (6 knots; 3.1 m/s)
Visibility: 6 or more miles (10+ km)
Ceiling: at least 12,000 feet AGL
Clouds: scattered clouds at 1300 feet AGL
few clouds at 1500 feet AGL
scattered clouds at 5000 feet AGL
Weather: no significant weather observed at this time

METAR text: VVCT 240600Z 20007KT 160V230 9999 SCT013 FEW015TCU SCT050 32/27 Q1008 NOSIG TCU/E
Conditions at: VVCT (CAN THO , VN) observed 0600 UTC 24 June 2019
Temperature: 32.0°C (90°F)
Dewpoint: 27.0°C (81°F) [RH = 75%]
Pressure (altimeter): 29.76 inches Hg (1008.0 mb)
Winds: from the SSW (200 degrees) at 8 MPH (7 knots; 3.6 m/s)
Visibility: 6 or more miles (10+ km)
Ceiling: at least 12,000 feet AGL
Clouds: scattered clouds at 1300 feet AGL
few clouds at 1500 feet AGL
scattered clouds at 5000 feet AGL
Weather: no significant weather observed at this time

METAR text: VVCT 240530Z 21008KT 9999 SCT013 FEW015TCU SCT050 32/27 Q1008 NOSIG TCU/E
Conditions at: VVCT (CAN THO , VN) observed 0530 UTC 24 June 2019
Temperature: 32.0°C (90°F)
Dewpoint: 27.0°C (81°F) [RH = 75%]
Pressure (altimeter): 29.76 inches Hg (1008.0 mb)
Winds: from the SSW (210 degrees) at 9 MPH (8 knots; 4.1 m/s)
Visibility: 6 or more miles (10+ km)
Ceiling: at least 12,000 feet AGL
Clouds: scattered clouds at 1300 feet AGL
few clouds at 1500 feet AGL
scattered clouds at 5000 feet AGL
Weather: no significant weather observed at this time

METAR text: VVCT 240500Z 20007KT 190V360 9999 SCT013 FEW015TCU SCT050 32/27 Q1008 NOSIG TCU/E
Conditions at: VVCT (CAN THO , VN) observed 0500 UTC 24 June 2019
Temperature: 32.0°C (90°F)
Dewpoint: 27.0°C (81°F) [RH = 75%]
Pressure (altimeter): 29.76 inches Hg (1008.0 mb)
Winds: from the SSW (200 degrees) at 8 MPH (7 knots; 3.6 m/s)
Visibility: 6 or more miles (10+ km)
Ceiling: at least 12,000 feet AGL
Clouds: scattered clouds at 1300 feet AGL
few clouds at 1500 feet AGL
scattered clouds at 5000 feet AGL
Weather: no significant weather observed at this time

METAR text: VVCT 240430Z 00000KT 9999 SCT013 FEW015TCU SCT050 32/26 Q1008 NOSIG TCU/E
Conditions at: VVCT (CAN THO , VN) observed 0430 UTC 24 June 2019
Temperature: 32.0°C (90°F)
Dewpoint: 26.0°C (79°F) [RH = 71%]
Pressure (altimeter): 29.76 inches Hg (1008.0 mb)
Winds: calm
Visibility: 6 or more miles (10+ km)
Ceiling: at least 12,000 feet AGL
Clouds: scattered clouds at 1300 feet AGL
few clouds at 1500 feet AGL
scattered clouds at 5000 feet AGL
Weather: no significant weather observed at this time

METAR text: VVCT 240400Z 00000KT 9999 SCT013 FEW015TCU SCT050 31/26 Q1009 NOSIG TCU/W
Conditions at: VVCT (CAN THO , VN) observed 0400 UTC 24 June 2019
Temperature: 31.0°C (88°F)
Dewpoint: 26.0°C (79°F) [RH = 75%]
Pressure (altimeter): 29.79 inches Hg (1009.0 mb)
Winds: calm
Visibility: 6 or more miles (10+ km)
Ceiling: at least 12,000 feet AGL
Clouds: scattered clouds at 1300 feet AGL
few clouds at 1500 feet AGL
scattered clouds at 5000 feet AGL
Weather: no significant weather observed at this time

METAR text: VVCT 240330Z 00000KT 9999 SCT013 FEW015TCU SCT050 31/27 Q1009 NOSIG TCU/W
Conditions at: VVCT (CAN THO , VN) observed 0330 UTC 24 June 2019
Temperature: 31.0°C (88°F)
Dewpoint: 27.0°C (81°F) [RH = 79%]
Pressure (altimeter): 29.79 inches Hg (1009.0 mb)
Winds: calm
Visibility: 6 or more miles (10+ km)
Ceiling: at least 12,000 feet AGL
Clouds: scattered clouds at 1300 feet AGL
few clouds at 1500 feet AGL
scattered clouds at 5000 feet AGL
Weather: no significant weather observed at this time

METAR text: VVCT 240300Z 00000KT 9999 SCT013 FEW015TCU SCT050 32/27 Q1009 NOSIG TCU/W
Conditions at: VVCT (CAN THO , VN) observed 0300 UTC 24 June 2019
Temperature: 32.0°C (90°F)
Dewpoint: 27.0°C (81°F) [RH = 75%]
Pressure (altimeter): 29.79 inches Hg (1009.0 mb)
Winds: calm
Visibility: 6 or more miles (10+ km)
Ceiling: at least 12,000 feet AGL
Clouds: scattered clouds at 1300 feet AGL
few clouds at 1500 feet AGL
scattered clouds at 5000 feet AGL
Weather: no significant weather observed at this time

METAR text: VVCT 240230Z 00000KT 9999 SCT013 FEW015TCU SCT050 31/27 Q1009 NOSIG TCU/W
Conditions at: VVCT (CAN THO , VN) observed 0230 UTC 24 June 2019
Temperature: 31.0°C (88°F)
Dewpoint: 27.0°C (81°F) [RH = 79%]
Pressure (altimeter): 29.79 inches Hg (1009.0 mb)
Winds: calm
Visibility: 6 or more miles (10+ km)
Ceiling: at least 12,000 feet AGL
Clouds: scattered clouds at 1300 feet AGL
few clouds at 1500 feet AGL
scattered clouds at 5000 feet AGL
Weather: no significant weather observed at this time

METAR text: VVCT 240200Z 00000KT 9999 BKN013 30/26 Q1009 NOSIG
Conditions at: VVCT (CAN THO , VN) observed 0200 UTC 24 June 2019
Temperature: 30.0°C (86°F)
Dewpoint: 26.0°C (79°F) [RH = 79%]
Pressure (altimeter): 29.79 inches Hg (1009.0 mb)
Winds: calm
Visibility: 6 or more miles (10+ km)
Ceiling: 1300 feet AGL
Clouds: broken clouds at 1300 feet AGL
Weather: no significant weather observed at this time

METAR text: VVCT 240130Z 00000KT 9999 SCT013 30/27 Q1009 NOSIG
Conditions at: VVCT (CAN THO , VN) observed 0130 UTC 24 June 2019
Temperature: 30.0°C (86°F)
Dewpoint: 27.0°C (81°F) [RH = 84%]
Pressure (altimeter): 29.79 inches Hg (1009.0 mb)
Winds: calm
Visibility: 6 or more miles (10+ km)
Ceiling: at least 12,000 feet AGL
Clouds: scattered clouds at 1300 feet AGL
Weather: no significant weather observed at this time

METAR text: VVCT 240100Z 00000KT 9999 FEW015 SCT050 30/27 Q1009 NOSIG
Conditions at: VVCT (CAN THO , VN) observed 0100 UTC 24 June 2019
Temperature: 30.0°C (86°F)
Dewpoint: 27.0°C (81°F) [RH = 84%]
Pressure (altimeter): 29.79 inches Hg (1009.0 mb)
Winds: calm
Visibility: 6 or more miles (10+ km)
Ceiling: at least 12,000 feet AGL
Clouds: few clouds at 1500 feet AGL
scattered clouds at 5000 feet AGL
Weather: no significant weather observed at this time

METAR text: VVCT 240030Z 00000KT 9999 FEW015 SCT050 29/28 Q1008 NOSIG
Conditions at: VVCT (CAN THO , VN) observed 0030 UTC 24 June 2019
Temperature: 29.0°C (84°F)
Dewpoint: 28.0°C (82°F) [RH = 94%]
Pressure (altimeter): 29.76 inches Hg (1008.0 mb)
Winds: calm
Visibility: 6 or more miles (10+ km)
Ceiling: at least 12,000 feet AGL
Clouds: few clouds at 1500 feet AGL
scattered clouds at 5000 feet AGL
Weather: no significant weather observed at this time

METAR text: VVCT 240000Z VRB03KT 9999 FEW015 SCT050 27/27 Q1008 NOSIG
Conditions at: VVCT (CAN THO , VN) observed 0000 UTC 24 June 2019
Temperature: 27.0°C (81°F)
Dewpoint: 27.0°C (81°F) [RH = 100%]
Pressure (altimeter): 29.76 inches Hg (1008.0 mb)
Winds: variable direction winds at 3 MPH (3 knots; 1.5 m/s)
Visibility: 6 or more miles (10+ km)
Ceiling: at least 12,000 feet AGL
Clouds: few clouds at 1500 feet AGL
scattered clouds at 5000 feet AGL
Weather: no significant weather observed at this time

METAR text: VVCT 232330Z 00000KT 9999 FEW015 SCT050 27/27 Q1008 NOSIG
Conditions at: VVCT (CAN THO , VN) observed 2330 UTC 23 June 2019
Temperature: 27.0°C (81°F)
Dewpoint: 27.0°C (81°F) [RH = 100%]
Pressure (altimeter): 29.76 inches Hg (1008.0 mb)
Winds: calm
Visibility: 6 or more miles (10+ km)
Ceiling: at least 12,000 feet AGL
Clouds: few clouds at 1500 feet AGL
scattered clouds at 5000 feet AGL
Weather: no significant weather observed at this time

Forecast for: VVCT (CAN THO , VN)
Text: TAF VVCT 250500Z 2506/2606 20007KT 9999 SCT015
Forecast period: 0600 UTC 25 June 2019 to 0600 UTC 26 June 2019
Forecast type: FROM: standard forecast or significant change
Winds: from the SSW (200 degrees) at 8 MPH (7 knots; 3.6 m/s)
Visibility: 6 or more miles 10+ km)
Ceiling: at least 12,000 feet AGL
Clouds: scattered clouds at 1500 feet AGL
Weather: no significant weather forecast for this period
Text: TEMPO 2507/2511 3000 TSRA BKN013 SCT015CB
Forecast period: 0700 to 1100 UTC 25 June 2019
Forecast type: TEMPORARY: The following changes expected for less than half the time period
Visibility: 1.86 miles (2.99 km)
Ceiling: 1300 feet AGL
Clouds: broken clouds at 1300 feet AGL
scattered clouds at 1500 feet AGL
Weather: TSRA  (rain associated with thunderstorm(s))